createdAt,value
2022-08-03T00:01:31.010Z,100704.80
2022-08-03T00:06:37.321Z,100702.00
2022-08-03T00:11:41.763Z,100696.80
2022-08-03T00:16:45.774Z,100699.40
2022-08-03T00:21:50.525Z,100702.20
2022-08-03T00:26:54.872Z,100706.60
2022-08-03T00:32:02.284Z,100707.80
2022-08-03T00:37:06.824Z,100707.40
2022-08-03T00:42:11.072Z,100704.80
2022-08-03T00:47:15.295Z,100704.00
2022-08-03T00:52:19.519Z,100703.60
2022-08-03T00:57:23.882Z,100706.80
2022-08-03T01:02:31.758Z,100700.40
2022-08-03T01:08:33.248Z,100702.40
2022-08-03T01:14:01.675Z,100701.80
2022-08-03T01:19:19.893Z,100696.20
2022-08-03T01:24:51.968Z,100690.20
2022-08-03T01:30:04.055Z,100683.40
2022-08-03T01:35:15.057Z,100681.60
2022-08-03T01:40:22.837Z,100683.00
2022-08-03T01:45:28.959Z,100680.60
2022-08-03T01:50:41.030Z,100681.40
2022-08-03T01:55:50.769Z,100681.00
2022-08-03T02:01:02.004Z,100685.00
2022-08-03T02:06:59.909Z,100680.40
2022-08-03T02:11:37.639Z,100675.80
2022-08-03T02:16:41.785Z,100668.20
2022-08-03T02:21:56.673Z,100658.80
2022-08-03T02:27:19.400Z,100658.20
2022-08-03T02:32:35.236Z,100655.40
2022-08-03T02:37:50.054Z,100657.60
2022-08-03T02:43:00.941Z,100656.20
2022-08-03T02:48:08.084Z,100653.20
2022-08-03T02:53:14.687Z,100658.20
2022-08-03T02:58:24.864Z,100657.20
2022-08-03T03:03:35.301Z,100658.80
2022-08-03T03:08:57.902Z,100654.40
2022-08-03T03:14:04.423Z,100653.80
2022-08-03T03:19:16.299Z,100651.40
2022-08-03T03:24:21.706Z,100653.60
2022-08-03T03:29:26.832Z,100650.60
2022-08-03T03:34:31.890Z,100653.20
2022-08-03T03:39:37.203Z,100651.00
2022-08-03T03:44:41.289Z,100655.00
2022-08-03T03:49:47.069Z,100656.60
2022-08-03T03:54:58.920Z,100658.60
2022-08-03T04:00:06.687Z,100661.80
2022-08-03T04:05:29.859Z,100663.40
2022-08-03T04:10:56.717Z,100672.00
2022-08-03T04:16:02.640Z,100677.40
2022-08-03T04:21:12.077Z,100686.20
2022-08-03T04:26:22.068Z,100684.20
2022-08-03T04:31:28.985Z,100690.60
2022-08-03T04:36:40.936Z,100694.80
2022-08-03T04:42:07.065Z,100700.80
2022-08-03T04:47:14.079Z,100703.60
2022-08-03T04:52:18.930Z,100701.00
2022-08-03T04:57:23.693Z,100705.60
2022-08-03T05:02:27.806Z,100707.00
2022-08-03T05:07:35.508Z,100713.80
2022-08-03T05:12:41.613Z,100715.20
2022-08-03T05:17:45.950Z,100716.00
2022-08-03T05:22:50.292Z,100708.60
2022-08-03T05:27:54.464Z,100710.40
2022-08-03T05:32:58.873Z,100722.40
2022-08-03T05:38:04.661Z,100709.80
2022-08-03T05:43:09.841Z,100709.00
2022-08-03T05:48:13.832Z,100714.00
2022-08-03T05:53:17.873Z,100716.20
2022-08-03T05:58:22.010Z,100720.60
2022-08-03T06:03:26.187Z,100723.00
2022-08-03T06:08:30.390Z,100728.00
2022-08-03T06:13:36.135Z,100723.80
2022-08-03T06:18:41.222Z,100737.20
2022-08-03T06:23:54.383Z,100745.40
2022-08-03T06:28:59.836Z,100746.80
2022-08-03T06:34:32.396Z,100746.20
2022-08-03T06:39:32.960Z,100740.60
2022-08-03T06:44:39.352Z,100736.00
2022-08-03T06:49:43.928Z,100738.40
2022-08-03T06:55:09.105Z,100735.40
2022-08-03T07:00:14.521Z,100735.00
2022-08-03T07:05:19.523Z,100729.40
2022-08-03T07:10:24.163Z,100749.20
2022-08-03T07:15:54.014Z,100756.40
2022-08-03T07:20:53.290Z,100754.40
2022-08-03T07:25:57.671Z,100749.60
2022-08-03T07:31:01.905Z,100758.40
2022-08-03T07:36:06.388Z,100747.80
2022-08-03T07:41:10.690Z,100746.40
2022-08-03T07:46:15.851Z,100750.20
2022-08-03T07:51:20.080Z,100745.40
2022-08-03T07:56:28.717Z,100747.00
2022-08-03T08:01:36.393Z,100751.80
2022-08-03T08:06:40.586Z,100750.00
2022-08-03T08:11:44.948Z,100756.40
2022-08-03T08:16:50.801Z,100762.80
2022-08-03T08:22:02.457Z,100766.00
2022-08-03T08:27:09.527Z,100766.80
2022-08-03T08:32:16.279Z,100766.80
2022-08-03T08:37:20.748Z,100767.40
2022-08-03T08:42:25.625Z,100768.80
2022-08-03T08:47:51.554Z,100771.40
2022-08-03T08:53:01.674Z,100769.40
2022-08-03T08:58:08.114Z,100767.60
2022-08-03T09:03:29.186Z,100771.20
2022-08-03T09:08:35.115Z,100765.20
2022-08-03T09:13:39.804Z,100770.60
2022-08-03T09:18:50.292Z,100768.80
2022-08-03T09:24:03.183Z,100769.00
2022-08-03T09:29:15.644Z,100776.20
2022-08-03T09:34:26.109Z,100763.80
2022-08-03T09:39:41.508Z,100769.00
2022-08-03T09:44:52.325Z,100773.20
2022-08-03T09:50:02.624Z,100760.80
2022-08-03T09:56:30.644Z,100765.40
2022-08-03T10:00:56.322Z,100769.00
2022-08-03T10:06:16.015Z,100769.60
2022-08-03T10:11:42.055Z,100766.60
2022-08-03T10:16:48.559Z,100769.40
2022-08-03T10:22:03.428Z,100766.80
2022-08-03T10:27:12.105Z,100751.80
2022-08-03T10:33:03.983Z,100754.40
2022-08-03T10:38:25.968Z,100761.80
2022-08-03T10:43:49.736Z,100745.80
2022-08-03T10:48:55.305Z,100759.20
2022-08-03T10:54:01.916Z,100761.20
2022-08-03T10:59:06.219Z,100759.40
2022-08-03T11:04:21.713Z,100754.60
2022-08-03T11:09:26.767Z,100753.80
2022-08-03T11:14:48.749Z,100755.20
2022-08-03T11:19:56.947Z,100752.60
2022-08-03T11:25:02.691Z,100747.60
2022-08-03T11:30:14.363Z,100750.20
2022-08-03T11:35:25.531Z,100755.80
2022-08-03T11:40:43.593Z,100752.40
2022-08-03T11:46:28.674Z,100750.40
2022-08-03T11:51:34.824Z,100748.60
2022-08-03T11:56:49.187Z,100750.80
2022-08-03T12:02:17.546Z,100735.60
2022-08-03T12:08:02.494Z,100740.80
2022-08-03T12:12:46.933Z,100738.40
2022-08-03T12:17:54.781Z,100737.60
2022-08-03T12:23:10.336Z,100729.20
2022-08-03T12:28:37.266Z,100732.60
2022-08-03T12:34:07.355Z,100723.00
2022-08-03T12:39:12.550Z,100720.80
2022-08-03T12:44:16.937Z,100727.80
2022-08-03T12:49:21.781Z,100722.00
2022-08-03T12:54:32.518Z,100718.40
2022-08-03T12:59:45.177Z,100712.20
2022-08-03T13:04:58.373Z,100715.00
2022-08-03T13:10:07.850Z,100710.20
2022-08-03T13:15:13.039Z,100710.20
2022-08-03T13:20:17.410Z,100716.20
2022-08-03T13:25:22.410Z,100708.80
2022-08-03T13:30:30.440Z,100724.20
2022-08-03T13:35:34.932Z,100711.80
2022-08-03T13:40:42.312Z,100709.00
2022-08-03T13:45:51.192Z,100709.00
2022-08-03T13:51:00.401Z,100707.00
2022-08-03T13:56:06.846Z,100700.00
2022-08-03T14:01:12.021Z,100697.80
2022-08-03T14:06:16.834Z,100694.20
2022-08-03T14:11:21.077Z,100691.60
2022-08-03T14:16:25.323Z,100688.60
2022-08-03T14:21:29.771Z,100686.40
2022-08-03T14:26:33.801Z,100679.80
2022-08-03T14:32:11.016Z,100675.00
2022-08-03T14:37:03.562Z,100673.20
2022-08-03T14:42:08.147Z,100665.00
2022-08-03T14:47:15.417Z,100664.40
2022-08-03T14:52:22.518Z,100662.40
2022-08-03T14:57:27.913Z,100661.40
2022-08-03T15:02:32.090Z,100665.60
2022-08-03T15:07:36.360Z,100659.00
2022-08-03T15:12:40.703Z,100656.40
2022-08-03T15:18:00.347Z,100646.20
2022-08-03T15:23:05.875Z,100643.00
2022-08-03T15:28:10.096Z,100647.00
2022-08-03T15:33:14.145Z,100643.40
2022-08-03T15:38:18.978Z,100641.40
2022-08-03T15:43:24.471Z,100639.40
2022-08-03T15:48:28.586Z,100640.00
2022-08-03T15:53:34.136Z,100637.80
2022-08-03T15:59:09.649Z,100638.20
2022-08-03T16:04:06.330Z,100636.40
2022-08-03T16:09:23.936Z,100638.60
2022-08-03T16:14:46.868Z,100635.80
2022-08-03T16:20:00.319Z,100640.80
2022-08-03T16:25:05.465Z,100645.60
2022-08-03T16:30:24.296Z,100645.20
2022-08-03T16:35:29.522Z,100641.40
2022-08-03T16:40:35.691Z,100642.40
2022-08-03T16:45:40.201Z,100640.60
2022-08-03T16:50:45.154Z,100639.60
2022-08-03T16:55:53.118Z,100640.80
2022-08-03T17:01:10.888Z,100641.80
2022-08-03T17:06:33.787Z,100648.80
2022-08-03T17:11:46.723Z,100648.00
2022-08-03T17:16:56.335Z,100648.20
2022-08-03T17:22:13.365Z,100652.80
2022-08-03T17:28:49.247Z,100661.40
2022-08-03T17:32:57.584Z,100668.20
2022-08-03T17:38:05.765Z,100669.60
2022-08-03T17:44:13.111Z,100668.20
2022-08-03T17:48:42.903Z,100670.60
2022-08-03T17:54:01.509Z,100675.80
2022-08-03T17:59:51.750Z,100678.20
2022-08-03T18:04:57.381Z,100681.60
2022-08-03T18:10:12.124Z,100682.80
2022-08-03T18:15:31.957Z,100686.00
2022-08-03T18:26:07.308Z,100699.00
2022-08-03T18:31:59.466Z,100698.20
2022-08-03T18:36:50.013Z,100699.80
2022-08-03T18:41:54.602Z,100699.00
2022-08-03T18:47:50.696Z,100708.60
2022-08-03T18:53:23.824Z,100715.20
2022-08-03T18:59:02.300Z,100710.80
2022-08-03T19:04:16.895Z,100714.60
2022-08-03T19:09:59.331Z,100710.60
2022-08-03T19:15:12.720Z,100713.80
2022-08-03T19:20:29.300Z,100710.20
2022-08-03T19:25:41.477Z,100699.60
2022-08-03T19:30:53.662Z,100709.80
2022-08-03T19:36:15.791Z,100708.40
2022-08-03T19:41:22.337Z,100709.40
2022-08-03T19:46:31.664Z,100706.40
2022-08-03T19:52:00.686Z,100703.00
2022-08-03T19:57:07.332Z,100710.20
2022-08-03T20:02:27.103Z,100707.80
2022-08-03T20:07:33.389Z,100715.20
2022-08-03T20:12:40.929Z,100719.20
2022-08-03T20:17:56.617Z,100717.80
2022-08-03T20:23:11.896Z,100712.40
2022-08-03T20:28:32.106Z,100715.80
2022-08-03T20:33:46.537Z,100717.20
2022-08-03T20:38:57.606Z,100712.40
2022-08-03T20:44:02.719Z,100713.40
2022-08-03T20:49:07.843Z,100718.40
2022-08-03T20:54:22.719Z,100717.60
2022-08-03T20:59:50.206Z,100722.80
2022-08-03T21:04:55.910Z,100722.60
2022-08-03T21:10:05.291Z,100723.60
2022-08-03T21:12:57.779Z,100689.60
2022-08-03T21:16:03.249Z,100722.40
2022-08-03T21:20:47.816Z,100726.00
2022-08-03T21:25:53.148Z,100728.40
2022-08-03T21:31:00.403Z,100726.60
2022-08-03T21:36:05.142Z,100723.60
2022-08-03T21:41:09.440Z,100727.40
2022-08-03T21:46:18.976Z,100733.00
2022-08-03T21:51:26.889Z,100729.00
2022-08-03T21:56:40.815Z,100726.00
2022-08-03T22:01:51.357Z,100717.80
2022-08-03T22:07:00.164Z,100715.20
2022-08-03T22:12:05.638Z,100723.20
2022-08-03T22:17:10.051Z,100723.60
2022-08-03T22:22:18.590Z,100724.00
2022-08-03T22:27:30.711Z,100720.40
2022-08-03T22:32:35.026Z,100725.40
2022-08-03T22:37:41.562Z,100723.00
2022-08-03T22:42:50.524Z,100724.20
2022-08-03T22:47:58.937Z,100724.80
2022-08-03T22:53:03.812Z,100725.20
2022-08-03T22:58:08.009Z,100726.00
2022-08-03T23:03:14.729Z,100726.00
2022-08-03T23:08:25.663Z,100717.80
2022-08-03T23:13:33.651Z,100717.60
2022-08-03T23:18:43.038Z,100715.40
2022-08-03T23:23:47.518Z,100710.60
2022-08-03T23:28:56.077Z,100714.80
2022-08-03T23:34:20.559Z,100716.20
2022-08-03T23:39:29.429Z,100718.60
2022-08-03T23:44:44.199Z,100719.20
2022-08-03T23:49:48.418Z,100722.00
2022-08-03T23:55:17.109Z,100722.20
